Arlington, Colorado
Current Conditions -  °F | °C
As of 10:53 PM on Sunday 21 Dec 2014 (Local Time) from KLHX Reporting Station
Overcast Overcast  
Wind Chill: 34°   Ceiling: 10000
Heat Index: 41°   Visibility: 10mi
Dew Point: 35°   Wind: 13mph
Humidity: 79%   Direction: 40°NE
Pressure: 29.64"   Gusts: NA
Location:  38.34°N, 103.34°W
Report Text: KLHX 220553Z AUTO 04011KT 10SM OVC100 05/02 A2964 RMK AO2 SLP026 T00500017 10056 20022 53019
Loading
Personal Weather Stations






























Interactive Weather Map New forecast layout! Learn more

10-Day Weather Forecast

Advertisements
Track Severe Weather on mobile